createdAt,value
2023-02-18T00:00:45.884Z,1009.50
2023-02-18T00:01:45.911Z,1009.57
2023-02-18T00:02:45.949Z,1009.52
2023-02-18T00:03:45.916Z,1009.55
2023-02-18T00:04:45.922Z,1009.49
2023-02-18T00:05:45.931Z,1009.52
2023-02-18T00:06:45.942Z,1009.59
2023-02-18T00:07:45.966Z,1009.56
2023-02-18T00:08:45.965Z,1009.60
2023-02-18T00:09:45.975Z,1009.64
2023-02-18T00:10:45.986Z,1009.58
2023-02-18T00:11:46.002Z,1009.61
2023-02-18T00:12:46.012Z,1009.65
2023-02-18T00:13:46.024Z,1009.53
2023-02-18T00:14:46.033Z,1009.52
2023-02-18T00:15:46.066Z,1009.59
2023-02-18T00:16:46.065Z,1009.60
2023-02-18T00:17:46.066Z,1009.54
2023-02-18T00:18:46.081Z,1009.63
2023-02-18T00:19:46.091Z,1009.54
2023-02-18T00:20:46.097Z,1009.66
2023-02-18T00:21:46.111Z,1009.64
2023-02-18T00:22:46.121Z,1009.71
2023-02-18T00:23:46.130Z,1009.70
2023-02-18T00:24:46.141Z,1009.66
2023-02-18T00:25:46.166Z,1009.75
2023-02-18T00:26:46.167Z,1009.78
2023-02-18T00:27:46.177Z,1009.78
2023-02-18T00:28:46.193Z,1009.78
2023-02-18T00:29:46.195Z,1009.75
2023-02-18T00:30:46.238Z,1009.90
2023-02-18T00:31:46.324Z,1009.73
2023-02-18T00:32:46.232Z,1009.66
2023-02-18T00:33:46.240Z,1009.80
2023-02-18T00:34:46.266Z,1009.84
2023-02-18T00:35:46.280Z,1009.82
2023-02-18T00:36:46.274Z,1009.83
2023-02-18T00:37:46.299Z,1009.83
2023-02-18T00:38:46.300Z,1009.78
2023-02-18T00:39:46.307Z,1009.85
2023-02-18T00:40:46.317Z,1009.89
2023-02-18T00:41:46.326Z,1009.87
2023-02-18T00:42:46.344Z,1009.89
2023-02-18T00:43:46.355Z,1009.99
2023-02-18T00:44:46.366Z,1009.95
2023-02-18T00:45:46.394Z,1009.91
2023-02-18T00:46:46.421Z,1009.95
2023-02-18T00:47:46.393Z,1009.93
2023-02-18T00:48:46.403Z,1009.92
2023-02-18T00:49:46.414Z,1009.98
2023-02-18T00:50:46.424Z,1010.03
2023-02-18T00:51:46.437Z,1010.04
2023-02-18T00:52:46.449Z,1009.98
2023-02-18T00:53:46.461Z,1009.98
2023-02-18T00:54:46.467Z,1010.00
2023-02-18T00:55:46.479Z,1009.97
2023-02-18T00:56:46.495Z,1010.00
2023-02-18T00:57:46.500Z,1010.06
2023-02-18T00:58:46.522Z,1010.05
2023-02-18T00:59:46.528Z,1010.05
2023-02-18T01:00:46.533Z,1010.03
2023-02-18T01:01:46.569Z,1010.07
2023-02-18T01:02:46.555Z,1010.07
2023-02-18T01:03:46.570Z,1010.03
2023-02-18T01:04:46.593Z,1010.01
2023-02-18T01:05:46.587Z,1009.93
2023-02-18T01:06:46.598Z,1009.95
2023-02-18T01:07:46.608Z,1010.00
2023-02-18T01:08:46.621Z,1010.00
2023-02-18T01:09:46.634Z,1009.96
2023-02-18T01:10:46.643Z,1010.07
2023-02-18T01:11:46.654Z,1009.98
2023-02-18T01:12:46.675Z,1009.96
2023-02-18T01:13:46.687Z,1009.97
2023-02-18T01:14:46.685Z,1009.92
2023-02-18T01:15:46.726Z,1009.94
2023-02-18T01:16:46.711Z,1009.92
2023-02-18T01:17:46.726Z,1010.00
2023-02-18T01:18:46.734Z,1009.94
2023-02-18T01:19:46.738Z,1009.93
2023-02-18T01:20:46.804Z,1010.01
2023-02-18T01:21:46.762Z,1009.93
2023-02-18T01:22:46.776Z,1009.97
2023-02-18T01:23:46.783Z,1009.96
2023-02-18T01:24:46.797Z,1009.90
2023-02-18T01:25:46.807Z,1009.87
2023-02-18T01:26:46.816Z,1009.99
2023-02-18T01:27:46.831Z,1009.80
2023-02-18T01:28:46.901Z,1009.83
2023-02-18T01:29:46.847Z,1010.01
2023-02-18T01:30:46.855Z,1009.92
2023-02-18T01:31:46.921Z,1009.90
2023-02-18T01:32:46.878Z,1009.91
2023-02-18T01:33:46.893Z,1009.85
2023-02-18T01:34:46.898Z,1009.93
2023-02-18T01:35:46.909Z,1009.94
2023-02-18T01:36:46.918Z,1009.86
2023-02-18T01:37:46.925Z,1009.93
2023-02-18T01:38:46.939Z,1009.97
2023-02-18T01:39:46.948Z,1009.95
2023-02-18T01:40:46.959Z,1009.88
2023-02-18T01:41:46.965Z,1009.91
2023-02-18T01:42:46.981Z,1009.94
2023-02-18T01:43:46.985Z,1009.95
2023-02-18T01:44:46.996Z,1009.90
2023-02-18T01:45:47.011Z,1009.97
2023-02-18T01:46:47.031Z,1009.96
2023-02-18T01:47:47.026Z,1009.95
2023-02-18T01:48:47.037Z,1009.93
2023-02-18T01:49:47.046Z,1009.97
2023-02-18T01:50:47.058Z,1009.81
2023-02-18T01:51:47.078Z,1009.94
2023-02-18T01:52:47.080Z,1009.89
2023-02-18T01:53:47.093Z,1009.97
2023-02-18T01:54:47.103Z,1009.98
2023-02-18T01:55:47.114Z,1010.03
2023-02-18T01:56:47.128Z,1010.05
2023-02-18T01:57:47.136Z,1009.99
2023-02-18T01:58:47.140Z,1010.03
2023-02-18T01:59:47.150Z,1009.96
2023-02-18T02:00:47.213Z,1010.00
2023-02-18T02:01:47.199Z,1009.91
2023-02-18T02:02:47.186Z,1009.92
2023-02-18T02:03:47.202Z,1009.99
2023-02-18T02:04:47.225Z,1010.01
2023-02-18T02:05:47.226Z,1010.02
2023-02-18T02:06:47.238Z,1010.09
2023-02-18T02:07:47.233Z,1010.01
2023-02-18T02:08:47.262Z,1009.98
2023-02-18T02:09:47.263Z,1009.88
2023-02-18T02:10:47.294Z,1009.91
2023-02-18T02:11:47.282Z,1009.94
2023-02-18T02:12:47.310Z,1010.01
2023-02-18T02:13:47.296Z,1009.92
2023-02-18T02:14:47.310Z,1010.00
2023-02-18T02:15:47.324Z,1009.94
2023-02-18T02:16:47.328Z,1009.86
2023-02-18T02:17:47.338Z,1009.87
2023-02-18T02:18:47.348Z,1010.06
2023-02-18T02:19:47.362Z,1009.95
2023-02-18T02:20:47.373Z,1010.00
2023-02-18T02:21:47.431Z,1010.04
2023-02-18T02:22:47.390Z,1010.07
2023-02-18T02:23:47.403Z,1010.13
2023-02-18T02:24:47.418Z,1010.11
2023-02-18T02:25:47.426Z,1010.04
2023-02-18T02:26:47.444Z,1010.13
2023-02-18T02:27:47.447Z,1010.10
2023-02-18T02:28:47.453Z,1010.07
2023-02-18T02:29:47.463Z,1010.00
2023-02-18T02:30:47.615Z,1010.10
2023-02-18T02:31:47.533Z,1010.12
2023-02-18T02:32:47.495Z,1010.13
2023-02-18T02:33:47.504Z,1010.11
2023-02-18T02:34:47.515Z,1010.10
2023-02-18T02:35:47.527Z,1010.09
2023-02-18T02:36:47.538Z,1010.09
2023-02-18T02:37:47.551Z,1010.10
2023-02-18T02:38:47.565Z,1009.90
2023-02-18T02:39:47.568Z,1010.06
2023-02-18T02:40:47.585Z,1010.08
2023-02-18T02:41:47.597Z,1009.92
2023-02-18T02:42:47.598Z,1010.05
2023-02-18T02:43:47.625Z,1010.00
2023-02-18T02:44:47.620Z,1010.03
2023-02-18T02:45:47.700Z,1009.97
2023-02-18T02:46:47.654Z,1010.03
2023-02-18T02:47:47.657Z,1010.04
2023-02-18T02:48:47.673Z,1010.08
2023-02-18T02:49:47.680Z,1010.06
2023-02-18T02:50:47.693Z,1010.08
2023-02-18T02:51:47.705Z,1010.05
2023-02-18T02:52:47.706Z,1010.07
2023-02-18T02:53:47.719Z,1010.05
2023-02-18T02:54:47.774Z,1010.03
2023-02-18T02:55:47.739Z,1010.05
2023-02-18T02:56:47.750Z,1010.05
2023-02-18T02:57:47.759Z,1010.12
2023-02-18T02:58:47.777Z,1010.04
2023-02-18T02:59:47.780Z,1010.11
2023-02-18T03:00:47.812Z,1010.01
2023-02-18T03:01:47.800Z,1010.07
2023-02-18T03:02:47.863Z,1010.07
2023-02-18T03:03:47.822Z,1010.13
2023-02-18T03:04:47.832Z,1010.11
2023-02-18T03:05:47.847Z,1010.01
2023-02-18T03:06:47.862Z,1010.11
2023-02-18T03:07:47.866Z,1010.11
2023-02-18T03:08:47.874Z,1010.08
2023-02-18T03:09:47.885Z,1010.05
2023-02-18T03:10:47.910Z,1010.05
2023-02-18T03:11:47.904Z,1010.05
2023-02-18T03:12:47.917Z,1010.02
2023-02-18T03:13:47.925Z,1010.07
2023-02-18T03:14:47.935Z,1010.12
2023-02-18T03:15:47.947Z,1009.99
2023-02-18T03:16:48.000Z,1010.03
2023-02-18T03:17:47.966Z,1010.07
2023-02-18T03:18:47.980Z,1010.04
2023-02-18T03:19:47.987Z,1010.07
2023-02-18T03:20:48.005Z,1010.11
2023-02-18T03:21:48.017Z,1010.10
2023-02-18T03:22:48.021Z,1010.14
2023-02-18T03:23:48.029Z,1010.15
2023-02-18T03:24:48.038Z,1010.08
2023-02-18T03:25:48.048Z,1010.19
2023-02-18T03:26:48.057Z,1010.14
2023-02-18T03:27:48.075Z,1010.12
2023-02-18T03:28:48.079Z,1010.14
2023-02-18T03:29:48.091Z,1010.17
2023-02-18T03:30:48.125Z,1010.16
2023-02-18T03:31:48.276Z,1010.22
2023-02-18T03:32:48.128Z,1010.18
2023-02-18T03:33:48.130Z,1010.03
2023-02-18T03:34:48.143Z,1010.18
2023-02-18T03:35:48.154Z,1010.13
2023-02-18T03:36:48.162Z,1010.13
2023-02-18T03:37:48.170Z,1010.12
2023-02-18T03:38:48.186Z,1010.13
2023-02-18T03:39:48.220Z,1010.10
2023-02-18T03:40:48.202Z,1010.08
2023-02-18T03:41:48.212Z,1010.12
2023-02-18T03:42:48.223Z,1010.03
2023-02-18T03:43:48.233Z,1009.99
2023-02-18T03:44:48.249Z,1010.03
2023-02-18T03:45:48.275Z,1010.11
2023-02-18T03:46:48.266Z,1010.09
2023-02-18T03:47:48.289Z,1010.10
2023-02-18T03:48:48.293Z,1010.07
2023-02-18T03:49:48.300Z,1010.01
2023-02-18T03:50:48.309Z,1010.12
2023-02-18T03:51:48.325Z,1010.11
2023-02-18T03:52:48.335Z,1010.12
2023-02-18T03:53:48.340Z,1010.07
2023-02-18T03:54:48.347Z,1010.06
2023-02-18T03:55:48.367Z,1010.06
2023-02-18T03:56:48.370Z,1010.06
2023-02-18T03:57:48.380Z,1010.08
2023-02-18T03:58:48.394Z,1010.02
2023-02-18T03:59:48.398Z,1010.01
2023-02-18T04:00:48.410Z,1010.04
2023-02-18T04:01:48.415Z,1010.00
2023-02-18T04:02:48.431Z,1010.05
2023-02-18T04:03:48.445Z,1010.02
2023-02-18T04:04:48.456Z,1010.09
2023-02-18T04:05:48.456Z,1010.10
2023-02-18T04:06:48.465Z,1010.08
2023-02-18T04:07:48.478Z,1010.07
2023-02-18T04:08:48.488Z,1010.06
2023-02-18T04:09:48.497Z,1010.04
2023-02-18T04:10:48.506Z,1010.05
2023-02-18T04:11:48.516Z,1010.08
2023-02-18T04:12:48.528Z,1010.03
2023-02-18T04:13:48.536Z,1010.06
2023-02-18T04:14:48.569Z,1010.05
2023-02-18T04:15:48.558Z,1010.01
2023-02-18T04:16:48.610Z,1010.08
2023-02-18T04:17:48.584Z,1010.11
2023-02-18T04:18:48.592Z,1010.10
2023-02-18T04:19:48.602Z,1010.09
2023-02-18T04:20:48.629Z,1010.07
2023-02-18T04:21:48.618Z,1010.14
2023-02-18T04:22:48.630Z,1010.12
2023-02-18T04:23:48.648Z,1010.03
2023-02-18T04:24:48.651Z,1010.10
2023-02-18T04:25:48.658Z,1010.13
2023-02-18T04:26:48.670Z,1010.09
2023-02-18T04:27:48.680Z,1010.12
2023-02-18T04:28:48.690Z,1010.05
2023-02-18T04:29:48.709Z,1010.09
2023-02-18T04:30:48.788Z,1010.08
2023-02-18T04:31:48.827Z,1010.06
2023-02-18T04:32:48.732Z,1010.00
2023-02-18T04:33:48.742Z,1010.05
2023-02-18T04:34:48.752Z,1010.08
2023-02-18T04:35:48.776Z,1010.09
2023-02-18T04:36:48.774Z,1010.10
2023-02-18T04:37:48.798Z,1010.17
2023-02-18T04:38:48.793Z,1010.07
2023-02-18T04:39:48.803Z,1010.09
2023-02-18T04:40:48.814Z,1010.16
2023-02-18T04:41:48.824Z,1010.18
2023-02-18T04:42:48.833Z,1010.19
2023-02-18T04:43:48.845Z,1010.21
2023-02-18T04:44:48.855Z,1010.16
2023-02-18T04:45:48.889Z,1010.23
2023-02-18T04:46:48.882Z,1010.18
2023-02-18T04:47:48.886Z,1010.16
2023-02-18T04:48:48.896Z,1010.14
2023-02-18T04:49:48.905Z,1010.19
2023-02-18T04:50:48.916Z,1010.16
2023-02-18T04:51:48.926Z,1010.24
2023-02-18T04:52:48.935Z,1010.18
2023-02-18T04:53:48.954Z,1010.21
2023-02-18T04:54:48.955Z,1010.22
2023-02-18T04:55:48.970Z,1010.22
2023-02-18T04:56:49.004Z,1010.20
2023-02-18T04:57:49.001Z,1010.22
2023-02-18T04:58:48.997Z,1010.22
2023-02-18T04:59:49.009Z,1010.26
2023-02-18T05:00:49.020Z,1010.26
2023-02-18T05:01:49.029Z,1010.23
2023-02-18T05:02:49.044Z,1010.20
2023-02-18T05:03:49.113Z,1010.21
2023-02-18T05:04:49.066Z,1010.22
2023-02-18T05:05:49.079Z,1010.24
2023-02-18T05:06:49.095Z,1010.23
2023-02-18T05:07:49.106Z,1010.25
2023-02-18T05:08:49.110Z,1010.19
2023-02-18T05:09:49.117Z,1010.17
2023-02-18T05:10:49.125Z,1010.19
2023-02-18T05:11:49.151Z,1010.20
2023-02-18T05:12:49.157Z,1010.20
2023-02-18T05:13:49.164Z,1010.17
2023-02-18T05:14:49.182Z,1010.16
2023-02-18T05:15:49.199Z,1010.22
2023-02-18T05:16:49.190Z,1010.23
2023-02-18T05:17:49.204Z,1010.19
2023-02-18T05:18:49.211Z,1010.21
2023-02-18T05:19:49.223Z,1010.23
2023-02-18T05:20:49.232Z,1010.20
2023-02-18T05:21:49.291Z,1010.21
2023-02-18T05:22:49.253Z,1010.17
2023-02-18T05:23:49.268Z,1010.11
2023-02-18T05:24:49.279Z,1010.09
2023-02-18T05:25:49.296Z,1010.19
2023-02-18T05:26:49.298Z,1010.13
2023-02-18T05:27:49.308Z,1010.17
2023-02-18T05:28:49.324Z,1010.17
2023-02-18T05:29:49.332Z,1010.07
2023-02-18T05:30:49.397Z,1010.13
2023-02-18T05:31:49.455Z,1010.09
2023-02-18T05:32:49.368Z,1010.11
2023-02-18T05:33:49.371Z,1010.11
2023-02-18T05:34:49.382Z,1010.08
2023-02-18T05:35:49.412Z,1010.10
2023-02-18T05:36:49.401Z,1010.10
2023-02-18T05:37:49.415Z,1010.09
2023-02-18T05:38:49.428Z,1010.09
2023-02-18T05:39:49.441Z,1010.11
2023-02-18T05:40:49.470Z,1010.10
2023-02-18T05:41:49.451Z,1010.06
2023-02-18T05:42:49.465Z,1010.03
2023-02-18T05:43:49.486Z,1010.00
2023-02-18T05:44:49.490Z,1010.02
2023-02-18T05:45:49.499Z,1010.01
2023-02-18T05:46:49.508Z,1010.02
2023-02-18T05:47:49.518Z,1010.01
2023-02-18T05:48:49.530Z,1009.99
2023-02-18T05:49:49.541Z,1010.00
2023-02-18T05:50:49.550Z,1009.96
2023-02-18T05:51:49.563Z,1009.93
2023-02-18T05:52:49.574Z,1009.92
2023-02-18T05:53:49.584Z,1009.95
2023-02-18T05:54:49.594Z,1010.02
2023-02-18T05:55:49.604Z,1010.00
2023-02-18T05:56:49.620Z,1009.98
2023-02-18T05:57:49.631Z,1009.96
2023-02-18T05:58:49.641Z,1009.99
2023-02-18T05:59:49.650Z,1010.00
2023-02-18T06:00:49.661Z,1010.03
2023-02-18T06:01:49.671Z,1009.99
2023-02-18T06:02:49.751Z,1009.99
2023-02-18T06:03:49.699Z,1010.00
2023-02-18T06:04:49.707Z,1009.99
2023-02-18T06:05:49.775Z,1009.97
2023-02-18T06:06:49.725Z,1009.98
2023-02-18T06:07:49.736Z,1009.99
2023-02-18T06:08:49.748Z,1010.02
2023-02-18T06:09:49.758Z,1010.00
2023-02-18T06:10:49.778Z,1010.06
2023-02-18T06:11:49.797Z,1010.01
2023-02-18T06:12:49.798Z,1009.98
2023-02-18T06:13:49.801Z,1010.03
2023-02-18T06:14:49.820Z,1010.02
2023-02-18T06:15:49.887Z,1010.03
2023-02-18T06:16:49.837Z,1009.97
2023-02-18T06:17:49.849Z,1009.91
2023-02-18T06:18:49.857Z,1009.93
2023-02-18T06:19:49.901Z,1009.93
2023-02-18T06:20:49.890Z,1009.91
2023-02-18T06:21:49.895Z,1009.92
2023-02-18T06:22:49.906Z,1009.90
2023-02-18T06:23:49.913Z,1009.99
2023-02-18T06:24:49.930Z,1009.96
2023-02-18T06:25:49.942Z,1010.00
2023-02-18T06:26:49.950Z,1009.96
2023-02-18T06:27:49.963Z,1009.98
2023-02-18T06:28:49.970Z,1009.99
2023-02-18T06:29:49.979Z,1010.04
2023-02-18T06:30:49.991Z,1009.96
2023-02-18T06:31:50.164Z,1009.99
2023-02-18T06:32:50.012Z,1010.01
2023-02-18T06:33:50.024Z,1009.96
2023-02-18T06:34:50.034Z,1010.03
2023-02-18T06:35:50.048Z,1010.04
2023-02-18T06:36:50.055Z,1010.03
2023-02-18T06:37:50.073Z,1010.04
2023-02-18T06:38:50.093Z,1010.07
2023-02-18T06:39:50.094Z,1010.05
2023-02-18T06:40:50.109Z,1010.06
2023-02-18T06:41:50.118Z,1009.99
2023-02-18T06:42:50.121Z,1010.07
2023-02-18T06:43:50.150Z,1010.02
2023-02-18T06:44:50.146Z,1010.01
2023-02-18T06:45:50.154Z,1009.99
2023-02-18T06:46:50.196Z,1010.00
2023-02-18T06:47:50.177Z,1009.98
2023-02-18T06:48:50.191Z,1009.99
2023-02-18T06:49:50.203Z,1009.96
2023-02-18T06:50:50.213Z,1009.92
2023-02-18T06:51:50.225Z,1009.97
2023-02-18T06:52:50.236Z,1009.92
2023-02-18T06:53:50.247Z,1009.90
2023-02-18T06:54:50.256Z,1009.92
2023-02-18T06:55:50.279Z,1009.90
2023-02-18T06:56:50.280Z,1009.92
2023-02-18T06:57:50.296Z,1009.89
2023-02-18T06:58:50.303Z,1009.89
2023-02-18T06:59:50.312Z,1010.00
2023-02-18T07:00:50.376Z,1009.93
2023-02-18T07:01:50.344Z,1009.97
2023-02-18T07:02:50.346Z,1010.00
2023-02-18T07:03:50.534Z,1009.96
2023-02-18T07:04:50.387Z,1009.94
2023-02-18T07:05:50.383Z,1009.92
2023-02-18T07:06:50.393Z,1009.92
2023-02-18T07:07:50.406Z,1009.90
2023-02-18T07:08:50.422Z,1009.89
2023-02-18T07:09:50.432Z,1009.90
2023-02-18T07:10:50.440Z,1009.88
2023-02-18T07:11:50.454Z,1009.89
2023-02-18T07:12:50.464Z,1009.79
2023-02-18T07:13:50.475Z,1009.83
2023-02-18T07:14:50.485Z,1009.80
2023-02-18T07:15:50.500Z,1009.78
2023-02-18T07:16:50.509Z,1009.82
2023-02-18T07:17:50.526Z,1009.90
2023-02-18T07:18:50.532Z,1009.89
2023-02-18T07:19:50.543Z,1009.84
2023-02-18T07:20:50.556Z,1009.92
2023-02-18T07:21:50.578Z,1009.89
2023-02-18T07:22:50.584Z,1009.89
2023-02-18T07:23:50.602Z,1009.95
2023-02-18T07:24:50.607Z,1009.89
2023-02-18T07:25:50.616Z,1009.88
2023-02-18T07:26:50.628Z,1009.89
2023-02-18T07:27:50.647Z,1009.90
2023-02-18T07:28:50.653Z,1009.81
2023-02-18T07:29:50.659Z,1009.86
2023-02-18T07:30:50.710Z,1009.90
2023-02-18T07:31:50.744Z,1009.87
2023-02-18T07:32:50.697Z,1009.84
2023-02-18T07:33:50.706Z,1009.91
2023-02-18T07:34:50.717Z,1009.84
2023-02-18T07:35:50.731Z,1009.79
2023-02-18T07:36:50.741Z,1009.93
2023-02-18T07:37:50.755Z,1009.90
2023-02-18T07:38:50.770Z,1009.79
2023-02-18T07:39:50.782Z,1009.82
2023-02-18T07:40:50.790Z,1009.80
2023-02-18T07:41:50.800Z,1009.75
2023-02-18T07:42:50.811Z,1009.73
2023-02-18T07:43:50.825Z,1009.70
2023-02-18T07:44:50.833Z,1009.70
2023-02-18T07:45:50.858Z,1009.65
2023-02-18T07:46:50.857Z,1009.67
2023-02-18T07:47:50.869Z,1009.66
2023-02-18T07:48:50.896Z,1009.61
2023-02-18T07:49:50.893Z,1009.57
2023-02-18T07:50:50.902Z,1009.54
2023-02-18T07:51:50.919Z,1009.57
2023-02-18T07:52:50.927Z,1009.47
2023-02-18T07:53:50.939Z,1009.55
2023-02-18T07:54:50.952Z,1009.52
2023-02-18T07:55:51.008Z,1009.56
2023-02-18T07:56:50.983Z,1009.61
2023-02-18T07:57:51.006Z,1009.57
2023-02-18T07:58:51.023Z,1009.54
2023-02-18T07:59:51.011Z,1009.55
2023-02-18T08:00:51.044Z,1009.57
2023-02-18T08:01:51.103Z,1009.56
2023-02-18T08:02:51.065Z,1009.53
2023-02-18T08:03:51.137Z,1009.52
2023-02-18T08:04:51.071Z,1009.49
2023-02-18T08:05:51.080Z,1009.50
2023-02-18T08:06:51.093Z,1009.48
2023-02-18T08:07:51.105Z,1009.42
2023-02-18T08:08:51.128Z,1009.39
2023-02-18T08:09:51.181Z,1009.46
2023-02-18T08:10:51.138Z,1009.42
2023-02-18T08:11:51.152Z,1009.45
2023-02-18T08:12:51.161Z,1009.37
2023-02-18T08:13:51.177Z,1009.34
2023-02-18T08:14:51.212Z,1009.31
2023-02-18T08:15:51.202Z,1009.36
2023-02-18T08:16:51.291Z,1009.36
2023-02-18T08:17:51.225Z,1009.29
2023-02-18T08:18:51.235Z,1009.26
2023-02-18T08:19:51.248Z,1009.21
2023-02-18T08:20:51.264Z,1009.21
2023-02-18T08:21:51.284Z,1009.23
2023-02-18T08:22:51.289Z,1009.21
2023-02-18T08:23:51.300Z,1009.18
2023-02-18T08:24:51.313Z,1009.19
2023-02-18T08:25:51.319Z,1009.17
2023-02-18T08:27:00.490Z,1009.14
2023-02-18T08:27:51.346Z,1009.11
2023-02-18T08:28:51.359Z,1009.14
2023-02-18T08:29:51.378Z,1009.12
2023-02-18T08:30:51.406Z,1009.12
2023-02-18T08:31:51.484Z,1009.08
2023-02-18T08:32:51.407Z,1008.98
2023-02-18T08:33:51.417Z,1009.00
2023-02-18T08:34:51.426Z,1008.96
2023-02-18T08:35:51.445Z,1008.96
2023-02-18T08:36:51.456Z,1008.96
2023-02-18T08:37:52.915Z,1008.93
2023-02-18T08:38:51.478Z,1008.93
2023-02-18T08:39:51.486Z,1008.91
2023-02-18T08:40:51.502Z,1008.91
2023-02-18T08:41:51.512Z,1008.88
2023-02-18T08:42:51.524Z,1008.91
2023-02-18T08:43:51.535Z,1008.87
2023-02-18T08:44:51.545Z,1008.83
2023-02-18T08:45:51.570Z,1008.85
2023-02-18T08:46:51.608Z,1008.86
2023-02-18T08:48:13.728Z,1008.78
2023-02-18T08:48:51.599Z,1008.75
2023-02-18T08:49:51.606Z,1008.77
2023-02-18T08:50:51.622Z,1008.77
2023-02-18T08:51:51.632Z,1008.78
2023-02-18T08:52:51.641Z,1008.74
2023-02-18T08:53:51.655Z,1008.70
2023-02-18T08:54:51.666Z,1008.75
2023-02-18T08:55:51.686Z,1008.77
2023-02-18T08:56:51.688Z,1008.79
2023-02-18T08:57:51.709Z,1008.72
2023-02-18T08:58:51.717Z,1008.72
2023-02-18T08:59:51.724Z,1008.68
2023-02-18T09:00:51.737Z,1008.73
2023-02-18T09:01:51.747Z,1008.75
2023-02-18T09:02:51.758Z,1008.74
2023-02-18T09:03:51.789Z,1008.68
2023-02-18T09:04:51.784Z,1008.70
2023-02-18T09:05:51.797Z,1008.62
2023-02-18T09:06:51.810Z,1008.55
2023-02-18T09:07:51.821Z,1008.57
2023-02-18T09:08:51.833Z,1008.60
2023-02-18T09:09:51.843Z,1008.54
2023-02-18T09:10:51.857Z,1008.48
2023-02-18T09:11:51.869Z,1008.42
2023-02-18T09:12:51.881Z,1008.42
2023-02-18T09:13:51.892Z,1008.41
2023-02-18T09:14:51.911Z,1008.42
2023-02-18T09:15:51.952Z,1008.38
2023-02-18T09:16:51.936Z,1008.39
2023-02-18T09:17:51.955Z,1008.35
2023-02-18T09:18:51.951Z,1008.34
2023-02-18T09:19:51.972Z,1008.32
2023-02-18T09:20:51.973Z,1008.35
2023-02-18T09:21:51.986Z,1008.27
2023-02-18T09:22:52.003Z,1008.26
2023-02-18T09:23:52.012Z,1008.21
2023-02-18T09:24:52.021Z,1008.23
2023-02-18T09:25:52.035Z,1008.23
2023-02-18T09:26:52.046Z,1008.23
2023-02-18T09:27:52.056Z,1008.17
2023-02-18T09:28:52.070Z,1008.15
2023-02-18T09:29:52.084Z,1008.15
2023-02-18T09:30:52.131Z,1008.12
2023-02-18T09:31:52.184Z,1008.09
2023-02-18T09:32:52.119Z,1008.12
2023-02-18T09:33:52.130Z,1008.04
2023-02-18T09:34:52.140Z,1008.06
2023-02-18T09:35:52.153Z,1008.12
2023-02-18T09:36:52.166Z,1008.11
2023-02-18T09:37:52.176Z,1008.09
2023-02-18T09:38:52.193Z,1008.01
2023-02-18T09:39:52.200Z,1008.01
2023-02-18T09:40:52.212Z,1007.98
2023-02-18T09:41:52.225Z,1007.94
2023-02-18T09:42:52.248Z,1007.91
2023-02-18T09:43:52.258Z,1007.85
2023-02-18T09:44:52.263Z,1007.82
2023-02-18T09:45:52.337Z,1007.81
2023-02-18T09:46:52.290Z,1007.78
2023-02-18T09:47:52.301Z,1007.75
2023-02-18T09:48:52.312Z,1007.70
2023-02-18T09:49:52.331Z,1007.69
2023-02-18T09:50:52.340Z,1007.67
2023-02-18T09:51:52.348Z,1007.65
2023-02-18T09:52:52.357Z,1007.64
2023-02-18T09:53:52.390Z,1007.60
2023-02-18T09:54:52.382Z,1007.55
2023-02-18T09:55:52.396Z,1007.47
2023-02-18T09:56:52.411Z,1007.36
2023-02-18T09:57:52.438Z,1007.31
2023-02-18T09:58:52.431Z,1007.34
2023-02-18T09:59:52.448Z,1007.35
2023-02-18T10:00:52.456Z,1007.43
2023-02-18T10:01:52.531Z,1007.41
2023-02-18T10:02:52.483Z,1007.35
2023-02-18T10:03:54.197Z,1007.34
2023-02-18T10:04:52.514Z,1007.28
2023-02-18T10:05:52.521Z,1007.26
2023-02-18T10:06:52.533Z,1007.27
2023-02-18T10:07:52.542Z,1007.24
2023-02-18T10:08:52.578Z,1007.27
2023-02-18T10:09:52.565Z,1007.25
2023-02-18T10:10:52.582Z,1007.24
2023-02-18T10:11:52.589Z,1007.24
2023-02-18T10:12:52.604Z,1007.21
2023-02-18T10:13:52.620Z,1007.25
2023-02-18T10:14:52.627Z,1007.28
2023-02-18T10:15:52.692Z,1007.26
2023-02-18T10:16:52.653Z,1007.24
2023-02-18T10:17:52.685Z,1007.27
2023-02-18T10:18:52.677Z,1007.15
2023-02-18T10:19:52.690Z,1007.10
2023-02-18T10:20:52.702Z,1007.01
2023-02-18T10:21:52.716Z,1007.00
2023-02-18T10:22:52.742Z,1006.91
2023-02-18T10:23:52.739Z,1006.92
2023-02-18T10:24:52.756Z,1006.85
2023-02-18T10:25:52.795Z,1006.81
2023-02-18T10:26:52.783Z,1006.81
2023-02-18T10:27:52.792Z,1006.82
2023-02-18T10:28:52.807Z,1006.81
2023-02-18T10:29:52.816Z,1006.73
2023-02-18T10:30:52.888Z,1006.70
2023-02-18T10:31:52.915Z,1006.69
2023-02-18T10:32:52.848Z,1006.66
2023-02-18T10:33:52.862Z,1006.61
2023-02-18T10:34:52.887Z,1006.55
2023-02-18T10:35:52.903Z,1006.57
2023-02-18T10:36:52.901Z,1006.56
2023-02-18T10:37:52.911Z,1006.51
2023-02-18T10:38:52.949Z,1006.46
2023-02-18T10:39:52.946Z,1006.44
2023-02-18T10:40:52.959Z,1006.39
2023-02-18T10:41:52.959Z,1006.31
2023-02-18T10:42:52.969Z,1006.32
2023-02-18T10:43:52.985Z,1006.28
2023-02-18T10:44:53.003Z,1006.25
2023-02-18T10:45:53.026Z,1006.22
2023-02-18T10:46:53.056Z,1006.15
2023-02-18T10:47:53.035Z,1006.11
2023-02-18T10:48:53.044Z,1006.11
2023-02-18T10:49:53.056Z,1006.07
2023-02-18T10:50:53.073Z,1006.06
2023-02-18T10:51:53.081Z,1006.03
2023-02-18T10:52:53.093Z,1005.95
2023-02-18T10:53:53.114Z,1005.94
2023-02-18T10:54:53.123Z,1005.93
2023-02-18T10:55:53.132Z,1005.88
2023-02-18T10:56:53.143Z,1005.87
2023-02-18T10:57:53.156Z,1005.82
2023-02-18T10:58:53.175Z,1005.83
2023-02-18T10:59:53.181Z,1005.79
2023-02-18T11:00:53.191Z,1005.79
2023-02-18T11:01:53.232Z,1005.73
2023-02-18T11:02:53.221Z,1005.72
2023-02-18T11:03:53.232Z,1005.65
2023-02-18T11:04:53.344Z,1005.62
2023-02-18T11:05:53.254Z,1005.58
2023-02-18T11:06:53.264Z,1005.53
2023-02-18T11:07:53.278Z,1005.45
2023-02-18T11:08:53.290Z,1005.43
2023-02-18T11:09:53.320Z,1005.35
2023-02-18T11:10:53.317Z,1005.29
2023-02-18T11:12:01.372Z,1005.28
2023-02-18T11:12:53.340Z,1005.18
2023-02-18T11:13:53.357Z,1005.22
2023-02-18T11:14:53.368Z,1005.19
2023-02-18T11:15:53.397Z,1005.16
2023-02-18T11:16:53.390Z,1005.09
2023-02-18T11:17:53.409Z,1005.05
2023-02-18T11:18:53.467Z,1005.04
2023-02-18T11:19:53.431Z,1005.02
2023-02-18T11:20:53.447Z,1004.98
2023-02-18T11:21:53.452Z,1004.99
2023-02-18T11:22:53.465Z,1004.95
2023-02-18T11:23:53.481Z,1004.94
2023-02-18T11:24:53.492Z,1004.91
2023-02-18T11:25:53.504Z,1004.90
2023-02-18T11:26:53.529Z,1004.85
2023-02-18T11:27:53.528Z,1004.83
2023-02-18T11:28:53.543Z,1004.78
2023-02-18T11:29:53.553Z,1004.74
2023-02-18T11:30:53.569Z,1004.76
2023-02-18T11:31:53.683Z,1004.71
2023-02-18T11:32:53.591Z,1004.68
2023-02-18T11:33:53.610Z,1004.65
2023-02-18T11:34:53.621Z,1004.61
2023-02-18T11:35:53.629Z,1004.64
2023-02-18T11:36:53.643Z,1004.63
2023-02-18T11:37:53.654Z,1004.60
2023-02-18T11:38:53.668Z,1004.55
2023-02-18T11:39:53.681Z,1004.52
2023-02-18T11:40:53.706Z,1004.55
2023-02-18T11:41:53.706Z,1004.55
2023-02-18T11:42:53.719Z,1004.54
2023-02-18T11:43:53.739Z,1004.54
2023-02-18T11:44:53.742Z,1004.45
2023-02-18T11:45:53.755Z,1004.47
2023-02-18T11:46:53.832Z,1004.42
2023-02-18T11:47:53.782Z,1004.39
2023-02-18T11:48:53.792Z,1004.32
2023-02-18T11:49:53.809Z,1004.26
2023-02-18T11:50:53.852Z,1004.25
2023-02-18T11:51:53.828Z,1004.23
2023-02-18T11:52:53.921Z,1004.12
2023-02-18T11:53:53.853Z,1004.10
2023-02-18T11:54:53.868Z,1004.11
2023-02-18T11:55:53.884Z,1004.10
2023-02-18T11:56:53.959Z,1004.06
2023-02-18T11:57:53.909Z,1004.01
2023-02-18T11:58:53.917Z,1004.03
2023-02-18T11:59:53.932Z,1004.05
2023-02-18T12:00:53.950Z,1003.90
2023-02-18T12:01:53.969Z,1003.90
2023-02-18T12:02:53.970Z,1003.86
2023-02-18T12:03:53.982Z,1003.81
2023-02-18T12:04:54.027Z,1003.80
2023-02-18T12:05:54.007Z,1003.74